Time;durP1;ratioP1;P1;durP2;ratioP2;P2;SDS_P1;SDS_P2;PMS_P1;PMS_P2;Temp;Humidity;BMP_temperature;BMP_pressure;BME280_temperature;BME280_humidity;BME280_pressure;Samples;Min_cycle;Max_cycle;Signal;HPM_P1;HPM_P2
2022/11/20 07:06:12;;;;;;;21.58;17.92;;;;;;;1.88;77.86;100970.47;5280463;28;20391;-68
2022/11/20 07:08:43;;;;;;;22.15;17.02;;;;;;;1.85;78.41;100971.75;5262532;28;20048;-68
2022/11/20 07:11:14;;;;;;;21.23;17.77;;;;;;;1.94;79.08;100966.81;5275186;28;20025;-69
2022/11/20 07:13:45;;;;;;;21.33;16.88;;;;;;;1.95;79.47;100965.75;5280109;28;20032;-69
2022/11/20 07:16:17;;;;;;;22.10;18.70;;;;;;;1.95;79.38;100958.38;5280325;28;20029;-69
2022/11/20 07:18:48;;;;;;;20.38;17.52;;;;;;;1.95;79.21;100952.09;5279161;28;20090;-69
2022/11/20 07:21:22;;;;;;;19.63;16.52;;;;;;;1.93;78.79;100949.56;5278989;28;20019;-69
2022/11/20 07:23:53;;;;;;;20.65;17.52;;;;;;;1.81;79.56;100943.19;5264389;28;20030;-70
2022/11/20 07:26:25;;;;;;;22.25;18.98;;;;;;;2.00;80.23;100956.88;5258423;28;20025;-69
2022/11/20 07:28:56;;;;;;;19.33;16.92;;;;;;;1.99;79.12;100953.28;5266923;28;20027;-69
2022/11/20 07:31:27;;;;;;;19.33;15.98;;;;;;;2.10;79.56;100955.25;5269154;28;20099;-69
2022/11/20 07:33:59;;;;;;;17.80;15.38;;;;;;;2.10;78.64;100948.94;5267611;28;20032;-70
2022/11/20 07:36:30;;;;;;;20.35;17.05;;;;;;;2.04;78.39;100952.59;5258726;28;20029;-69
2022/11/20 07:39:01;;;;;;;19.52;15.95;;;;;;;2.13;78.64;100945.75;5273114;28;20480;-69
2022/11/20 07:41:33;;;;;;;18.48;14.50;;;;;;;2.12;78.18;100944.91;5278736;28;20383;-69
2022/11/20 07:44:04;;;;;;;18.00;15.10;;;;;;;2.20;78.12;100945.63;5259551;28;20031;-68
2022/11/20 07:46:36;;;;;;;16.73;14.35;;;;;;;2.31;78.71;100942.97;5258282;28;20033;-69
2022/11/20 07:49:07;;;;;;;17.73;15.00;;;;;;;2.28;78.19;100946.16;5266874;28;20090;-69
2022/11/20 07:51:38;;;;;;;16.77;14.13;;;;;;;2.30;78.87;100944.03;5261885;28;20029;-68
2022/11/20 07:54:10;;;;;;;17.75;14.18;;;;;;;2.34;78.32;100952.59;5257669;28;20025;-69
2022/11/20 07:56:41;;;;;;;15.80;14.10;;;;;;;2.32;79.17;100949.25;5258357;28;20025;-69
2022/11/20 07:59:12;;;;;;;17.85;15.23;;;;;;;2.29;78.75;100949.72;5262383;28;20028;-68
2022/11/20 08:01:44;;;;;;;16.02;14.25;;;;;;;2.34;79.88;100956.16;5263950;28;20032;-69
2022/11/20 08:04:16;;;;;;;16.05;13.93;;;;;;;2.39;79.09;100960.97;5259647;28;20038;-68
2022/11/20 08:06:47;;;;;;;17.30;14.13;;;;;;;2.36;80.05;100958.69;5268548;28;20025;-69
2022/11/20 08:09:18;;;;;;;15.52;13.35;;;;;;;2.29;80.35;100955.19;5278506;28;20426;-68
2022/11/20 08:14:39;;;;;;;15.32;13.55;;;;;;;2.44;80.59;100949.31;5277416;28;20080;-68
2022/11/20 08:17:11;;;;;;;17.17;15.35;;;;;;;2.54;80.24;100947.66;5267296;28;20448;-69
2022/11/20 08:19:42;;;;;;;15.77;14.10;;;;;;;2.61;80.24;100951.16;5258377;28;20024;-69
2022/11/20 08:22:14;;;;;;;15.00;13.40;;;;;;;2.67;80.05;100948.53;5253719;28;20083;-69
2022/11/20 08:24:45;;;;;;;17.55;14.48;;;;;;;2.73;80.01;100955.81;5264630;28;20039;-69
2022/11/20 08:27:16;;;;;;;15.93;14.32;;;;;;;2.77;80.09;100954.28;5264885;28;20033;-69
2022/11/20 08:29:47;;;;;;;15.43;13.65;;;;;;;2.75;80.09;100948.19;5261164;28;20033;-69
2022/11/20 08:32:19;;;;;;;18.55;15.48;;;;;;;2.76;79.72;100949.84;5244458;28;20075;-69
2022/11/20 08:34:50;;;;;;;18.00;15.07;;;;;;;2.82;79.84;100959.88;5243911;28;20022;-69
2022/11/20 08:37:21;;;;;;;18.95;15.10;;;;;;;2.85;79.50;100953.94;5255153;28;20032;-69
2022/11/20 08:39:53;;;;;;;16.10;14.10;;;;;;;2.89;79.42;100944.19;5264052;28;20025;-69
2022/11/20 08:42:24;;;;;;;16.92;15.13;;;;;;;2.93;80.04;100950.84;5263920;28;20488;-69
2022/11/20 08:44:56;;;;;;;20.30;15.75;;;;;;;2.93;79.43;100939.88;5264149;28;20033;-69
2022/11/20 08:47:30;;;;;;;16.00;14.30;;;;;;;2.92;80.28;100949.19;5264610;28;20028;-69
2022/11/20 08:50:02;;;;;;;15.85;14.23;;;;;;;2.93;81.02;100934.41;5253420;28;20033;-69
2022/11/20 08:52:33;;;;;;;16.15;14.45;;;;;;;2.98;80.42;100948.22;5243643;28;20021;-69
2022/11/20 08:55:06;;;;;;;17.23;15.18;;;;;;;2.94;80.71;100946.19;5249942;28;20017;-68
2022/11/20 08:57:38;;;;;;;15.63;14.02;;;;;;;3.00;80.53;100948.81;5263357;28;20100;-68
2022/11/20 09:00:10;;;;;;;20.50;15.57;;;;;;;3.04;81.34;100947.28;5255730;28;20537;-69
2022/11/20 09:02:42;;;;;;;20.48;14.98;;;;;;;3.09;80.88;100940.25;5258095;28;20020;-68
2022/11/20 09:05:13;;;;;;;18.42;14.60;;;;;;;3.08;80.96;100935.84;5260050;28;20048;-68
2022/11/20 09:07:44;;;;;;;18.17;15.65;;;;;;;3.14;82.10;100941.19;5257484;28;20068;-68
2022/11/20 09:10:16;;;;;;;20.77;16.95;;;;;;;3.23;82.14;100944.44;5255872;28;20018;-69
2022/11/20 09:12:51;;;;;;;20.27;15.77;;;;;;;3.22;82.17;100937.25;5260905;28;20028;-69
2022/11/20 09:15:24;;;;;;;21.88;15.98;;;;;;;3.23;82.07;100937.03;5261160;28;20064;-69
2022/11/20 09:17:58;;;;;;;23.73;16.50;;;;;;;3.28;82.47;100928.09;5261842;28;20024;-68
2022/11/20 09:20:30;;;;;;;21.52;16.38;;;;;;;3.33;83.22;100930.13;5262284;28;20017;-69
2022/11/20 09:23:01;;;;;;;21.20;16.27;;;;;;;3.34;82.99;100923.56;5259940;28;20385;-68
2022/11/20 09:25:32;;;;;;;21.10;17.77;;;;;;;3.32;83.10;100918.31;5261513;28;20075;-69
2022/11/20 09:28:06;;;;;;;23.00;17.13;;;;;;;3.35;83.83;100917.84;5257815;28;20032;-69
2022/11/20 09:30:38;;;;;;;22.23;17.25;;;;;;;3.31;83.88;100908.44;5261941;28;20021;-69
2022/11/20 09:33:09;;;;;;;23.95;17.38;;;;;;;3.42;84.34;100909.47;5259804;28;20051;-69
2022/11/20 09:35:41;;;;;;;29.15;20.02;;;;;;;3.46;83.92;100905.19;5263405;28;20031;-70
2022/11/20 09:38:13;;;;;;;30.45;20.90;;;;;;;3.49;84.09;100900.06;5262069;28;20112;-69
2022/11/20 09:41:02;;;;;;;32.30;22.20;;;;;;;3.59;84.31;100893.97;5262391;28;20025;-70
2022/11/20 09:43:54;;;;;;;33.60;21.65;;;;;;;3.54;85.23;100891.09;5261108;28;20033;-69
2022/11/20 09:46:40;;;;;;;37.55;23.70;;;;;;;3.58;85.57;100885.97;5261988;28;20610;-70
2022/11/20 09:49:37;;;;;;;36.38;23.65;;;;;;;3.58;85.52;100885.97;5255483;28;20032;-70
2022/11/20 09:52:30;;;;;;;38.85;24.92;;;;;;;3.57;85.16;100890.63;5241833;28;20107;-70
2022/11/20 09:55:03;;;;;;;34.17;22.70;;;;;;;3.58;86.13;100889.56;5246752;28;20081;-70
2022/11/20 09:57:39;;;;;;;33.25;22.80;;;;;;;3.61;85.90;100886.31;5259707;28;20060;-69
2022/11/20 10:00:12;;;;;;;;;;;;;;;3.80;85.21;100876.00;5248460;28;20527;-70
2022/11/20 10:03:05;;;;;;;30.77;22.10;;;;;;;3.74;85.33;100868.75;5246364;28;20051;-70
2022/11/20 10:05:47;;;;;;;29.88;20.83;;;;;;;3.68;85.94;100862.34;5250999;28;20041;-69
2022/11/20 10:08:30;;;;;;;29.90;21.20;;;;;;;3.62;86.42;100862.47;5261493;28;20037;-70
2022/11/20 10:11:18;;;;;;;33.05;20.90;;;;;;;3.73;86.46;100856.09;5260920;28;20105;-69
2022/11/20 10:14:08;;;;;;;30.38;20.60;;;;;;;3.80;86.39;100843.06;5250040;28;20025;-69
2022/11/20 10:17:01;;;;;;;29.33;21.70;;;;;;;3.83;87.09;100834.34;5242144;28;20026;-69
2022/11/20 10:19:48;;;;;;;34.58;21.15;;;;;;;3.88;86.73;100822.66;5242654;28;20057;-70
2022/11/20 10:22:57;;;;;;;32.00;22.80;;;;;;;3.95;87.15;100804.13;5241089;28;20100;-70
2022/11/20 10:25:52;;;;;;;30.58;22.05;;;;;;;4.01;86.99;100807.78;5241937;28;20038;-69
2022/11/20 10:28:48;;;;;;;31.35;22.25;;;;;;;4.08;87.22;100819.44;5261345;28;20044;-69
2022/11/20 10:31:28;;;;;;;33.33;24.05;;;;;;;4.05;86.54;100811.72;5261039;28;20052;-70
2022/11/20 10:34:06;;;;;;;33.75;23.25;;;;;;;4.06;86.59;100811.44;5262417;28;20123;-69
2022/11/20 10:37:16;;;;;;;37.40;24.02;;;;;;;4.13;86.72;100800.31;5257674;28;20112;-70
2022/11/20 10:39:58;;;;;;;35.33;23.80;;;;;;;4.04;86.09;100788.06;5249411;28;20035;-70
2022/11/20 10:42:47;;;;;;;34.65;24.73;;;;;;;4.08;86.83;100775.53;5258801;28;20045;-70
2022/11/20 10:45:24;;;;;;;36.70;25.60;;;;;;;4.10;86.77;100784.34;5258579;28;20035;-69
2022/11/20 10:48:11;;;;;;;34.80;26.13;;;;;;;4.11;86.95;100777.78;5256821;28;20025;-70
2022/11/20 10:51:08;;;;;;;31.70;23.85;;;;;;;4.11;86.78;100770.38;5258052;28;20032;-69
2022/11/20 10:53:51;;;;;;;34.45;23.55;;;;;;;4.14;86.94;100767.16;5258470;28;20037;-70
2022/11/20 10:56:46;;;;;;;32.20;24.00;;;;;;;4.22;87.55;100760.41;5259016;28;20120;-70
2022/11/20 10:59:32;;;;;;;32.83;24.27;;;;;;;4.21;87.11;100758.72;5241796;28;20017;-69
2022/11/20 11:02:22;;;;;;;34.75;25.73;;;;;;;4.20;87.79;100751.59;5244370;28;20033;-69
2022/11/20 11:04:54;;;;;;;33.67;25.23;;;;;;;4.14;87.66;100752.56;5247840;28;20045;-69
2022/11/20 11:07:38;;;;;;;37.70;27.50;;;;;;;4.20;87.42;100754.34;5240956;28;20079;-69
2022/11/20 11:10:18;;;;;;;32.50;23.88;;;;;;;4.24;87.73;100755.47;5247563;28;20059;-69
2022/11/20 11:12:50;;;;;;;34.53;24.23;;;;;;;4.22;87.27;100743.94;5259344;28;20109;-69
2022/11/20 11:15:30;;;;;;;34.55;26.17;;;;;;;4.31;87.88;100739.69;5247382;28;20064;-70
2022/11/20 11:18:02;;;;;;;32.80;23.75;;;;;;;4.28;88.01;100736.63;5247768;28;20477;-70
2022/11/20 11:20:33;;;;;;;33.35;24.63;;;;;;;4.33;88.70;100748.50;5241254;28;20060;-70
2022/11/20 11:23:04;;;;;;;36.28;24.90;;;;;;;4.35;88.77;100742.78;5251198;28;20029;-70
2022/11/20 11:25:37;;;;;;;36.05;24.67;;;;;;;4.40;89.30;100739.25;5260826;28;20476;-70
2022/11/20 11:28:17;;;;;;;34.00;24.05;;;;;;;4.44;89.21;100738.50;5251481;28;20030;-70
2022/11/20 11:30:49;;;;;;;34.72;25.13;;;;;;;4.45;89.91;100737.44;5243264;28;20427;-70
2022/11/20 11:33:25;;;;;;;37.47;26.35;;;;;;;4.34;90.52;100728.19;5241221;28;20036;-70
2022/11/20 11:36:00;;;;;;;34.50;26.42;;;;;;;4.38;91.02;100722.22;5244707;28;20045;-70
2022/11/20 11:38:39;;;;;;;36.33;25.42;;;;;;;4.45;91.91;100720.09;5246867;28;20030;-70
2022/11/20 11:41:20;;;;;;;36.88;26.70;;;;;;;4.47;91.13;100712.44;5242883;28;20427;-71
2022/11/20 11:46:55;;;;;;;35.65;26.42;;;;;;;4.54;92.13;100711.19;5245750;28;20112;-69
2022/11/20 11:49:26;;;;;;;39.05;26.15;;;;;;;4.52;92.20;100699.63;5253780;28;20431;-70
2022/11/20 11:52:16;;;;;;;35.03;26.42;;;;;;;4.56;92.77;100688.97;5242612;28;20044;-70
2022/11/20 11:54:52;;;;;;;39.10;27.73;;;;;;;4.57;92.69;100691.44;5255153;28;20479;-70
2022/11/20 11:57:49;;;;;;;38.13;26.88;;;;;;;4.63;92.87;100688.78;5258723;28;20048;-69
2022/11/20 12:00:22;;;;;;;53.55;39.72;;;;;;;4.61;92.62;100686.28;5258137;28;20511;-71
2022/11/20 12:03:13;;;;;;;40.03;27.75;;;;;;;4.61;93.82;100675.31;5261904;28;20155;-70
2022/11/20 12:06:08;;;;;;;38.67;27.15;;;;;;;4.72;94.54;100666.09;5264148;28;20041;-68
2022/11/20 12:08:51;;;;;;;37.53;26.13;;;;;;;4.73;94.00;100648.56;5251700;28;20063;-68
2022/11/20 12:11:43;;;;;;;43.88;27.42;;;;;;;4.76;94.63;100637.03;5255609;28;20021;-68
2022/11/20 12:14:26;;;;;;;40.70;27.30;;;;;;;4.64;94.56;100632.75;5248115;28;20033;-67
2022/11/20 12:16:57;;;;;;;37.67;26.58;;;;;;;4.75;95.00;100629.88;5256212;28;20037;-68
2022/11/20 12:19:34;;;;;;;35.80;27.40;;;;;;;4.76;95.27;100617.00;5244072;28;20049;-67
2022/11/20 12:22:33;;;;;;;40.67;27.75;;;;;;;4.76;96.13;100606.81;5243762;28;20034;-67
2022/11/20 12:25:10;;;;;;;39.13;26.73;;;;;;;4.81;96.31;100603.31;5264474;28;20472;-68
2022/11/20 12:28:00;;;;;;;38.45;27.33;;;;;;;4.87;96.07;100601.44;5258264;28;20051;-68
2022/11/20 12:30:38;;;;;;;39.92;27.23;;;;;;;4.86;96.55;100599.75;5260250;28;20044;-68
2022/11/20 12:33:27;;;;;;;39.85;26.60;;;;;;;4.92;96.40;100601.50;5248481;28;20472;-68
2022/11/20 12:36:30;;;;;;;36.88;26.20;;;;;;;4.87;96.92;100598.69;5257697;28;20036;-68
2022/11/20 12:39:13;;;;;;;35.20;25.77;;;;;;;4.78;96.25;100590.91;5252523;28;20108;-68
2022/11/20 12:45:11;;;;;;;36.75;25.70;;;;;;;4.95;96.99;100576.25;5258444;28;20037;-69
2022/11/20 12:48:01;;;;;;;38.38;29.20;;;;;;;4.94;96.54;100574.59;5258921;28;20135;-69
2022/11/20 12:50:47;;;;;;;39.42;25.20;;;;;;;5.08;97.77;100570.31;5253107;28;20052;-68
2022/11/20 12:53:51;;;;;;;34.95;24.92;;;;;;;5.16;97.48;100556.09;5239343;28;20488;-68
2022/11/20 12:56:32;;;;;;;40.40;25.35;;;;;;;5.16;97.04;100538.78;5242775;28;20439;-69
2022/11/20 12:59:27;;;;;;;38.50;24.95;;;;;;;5.14;97.09;100529.97;5243257;28;20104;-69
2022/11/20 13:02:05;;;;;;;33.78;23.85;;;;;;;5.19;97.45;100516.25;5243149;28;20075;-65
2022/11/20 13:04:36;;;;;;;40.03;28.05;;;;;;;5.22;97.81;100524.00;5255116;28;20180;-68
2022/11/20 13:07:11;;;;;;;38.15;24.80;;;;;;;5.27;98.07;100512.22;5247335;28;20518;-68
2022/11/20 13:09:48;;;;;;;38.60;24.27;;;;;;;5.43;97.58;100505.75;5243659;28;20021;-67
2022/11/20 13:12:30;;;;;;;36.95;24.52;;;;;;;5.35;97.61;100500.75;5258838;28;20025;-69
2022/11/20 13:15:28;;;;;;;39.22;25.80;;;;;;;5.45;97.82;100503.56;5252247;28;20032;-67
2022/11/20 13:18:01;;;;;;;35.15;23.42;;;;;;;5.33;97.29;100501.00;5250424;28;20037;-68
2022/11/20 13:20:34;;;;;;;34.40;25.33;;;;;;;5.36;97.50;100485.88;5250594;28;20372;-68
2022/11/20 13:23:06;;;;;;;36.72;25.42;;;;;;;5.34;97.82;100485.31;5259505;28;20090;-69
2022/11/20 13:25:39;;;;;;;39.40;27.17;;;;;;;5.41;98.36;100480.41;5249940;28;20468;-69
2022/11/20 13:28:10;;;;;;;36.60;24.90;;;;;;;5.43;98.09;100478.25;5242955;28;20072;-69
2022/11/20 13:30:57;;;;;;;37.83;26.60;;;;;;;5.47;98.36;100468.38;5253885;28;20052;-73
2022/11/20 13:33:38;;;;;;;34.92;25.55;;;;;;;5.53;98.40;100466.47;5244149;28;20033;-69
2022/11/20 13:36:23;;;;;;;36.63;24.10;;;;;;;5.59;98.60;100460.72;5250645;28;20067;-69
2022/11/20 13:38:56;;;;;;;35.22;23.40;;;;;;;5.61;98.25;100452.22;5261848;28;20037;-69
2022/11/20 13:41:37;;;;;;;42.30;27.15;;;;;;;5.65;98.48;100443.19;5247970;28;20074;-69
2022/11/20 13:44:23;;;;;;;44.70;27.95;;;;;;;5.61;98.16;100441.22;5245016;28;20022;-69
2022/11/20 13:46:54;;;;;;;39.38;25.80;;;;;;;5.68;98.05;100438.25;5248579;28;20095;-70
2022/11/20 13:49:31;;;;;;;39.67;25.13;;;;;;;5.66;97.97;100438.50;5263421;28;20419;-69
2022/11/20 13:52:44;;;;;;;40.33;25.63;;;;;;;5.75;98.71;100441.56;5248181;28;20026;-69
2022/11/20 13:55:51;;;;;;;40.85;25.67;;;;;;;5.78;98.40;100430.88;5242716;28;20026;-70
2022/11/20 13:58:37;;;;;;;40.95;27.05;;;;;;;5.79;98.38;100426.19;5241514;28;20096;-70
2022/11/20 14:01:14;;;;;;;40.47;26.30;;;;;;;5.75;98.14;100420.41;5254039;28;20086;-69
2022/11/20 14:03:47;;;;;;;37.28;26.45;;;;;;;5.70;99.12;100425.03;5261186;28;20029;-70
2022/11/20 14:06:32;;;;;;;35.97;26.00;;;;;;;5.76;98.80;100416.53;5260203;28;20106;-69
2022/11/20 14:09:03;;;;;;;42.33;25.88;;;;;;;5.78;99.24;100419.03;5256976;28;20431;-68
2022/11/20 14:11:35;;;;;;;40.35;28.08;;;;;;;5.80;98.95;100403.06;5250813;28;20025;-68
2022/11/20 14:14:17;;;;;;;36.40;26.75;;;;;;;5.88;99.92;100397.88;5256659;28;20029;-68
2022/11/20 14:16:50;;;;;;;39.17;26.10;;;;;;;5.79;99.52;100388.47;5258008;28;20048;-68
2022/11/20 14:19:21;;;;;;;36.47;25.92;;;;;;;5.85;100.00;100381.91;5251639;28;20033;-69
2022/11/20 14:22:08;;;;;;;35.25;25.77;;;;;;;5.83;100.00;100388.78;5262161;28;20083;-69
2022/11/20 14:24:48;;;;;;;39.45;26.95;;;;;;;5.88;100.00;100386.06;5253185;28;20122;-69
2022/11/20 14:27:21;;;;;;;37.45;26.27;;;;;;;5.86;100.00;100388.25;5254716;28;20021;-69
2022/11/20 14:29:52;;;;;;;37.60;25.80;;;;;;;5.91;100.00;100382.75;5242486;28;20156;-69
2022/11/20 14:32:29;;;;;;;40.10;26.80;;;;;;;5.92;100.00;100380.81;5261296;28;20197;-69
2022/11/20 14:35:08;;;;;;;40.88;27.55;;;;;;;5.87;100.00;100374.19;5250756;28;20514;-67
2022/11/20 14:37:40;;;;;;;45.60;28.40;;;;;;;5.94;100.00;100371.22;5253388;28;20056;-68
2022/11/20 14:40:26;;;;;;;40.20;25.77;;;;;;;5.95;100.00;100369.28;5250559;28;20060;-68
2022/11/20 14:42:59;;;;;;;41.50;26.33;;;;;;;5.98;100.00;100364.09;5259027;28;20033;-69
2022/11/20 14:45:30;;;;;;;45.22;27.48;;;;;;;6.00;100.00;100363.81;5241332;28;20087;-68
2022/11/20 14:48:01;;;;;;;36.80;25.20;;;;;;;6.00;100.00;100356.38;5255311;28;20025;-67
2022/11/20 14:50:33;;;;;;;39.67;26.08;;;;;;;6.04;100.00;100349.22;5259687;28;20095;-68
2022/11/20 14:53:04;;;;;;;37.42;26.98;;;;;;;6.06;100.00;100338.78;5254824;28;20029;-68
2022/11/20 14:55:38;;;;;;;34.60;25.17;;;;;;;6.04;100.00;100323.63;5255401;28;20025;-68
2022/11/20 14:58:24;;;;;;;40.60;27.88;;;;;;;6.06;100.00;100322.28;5259896;28;20412;-68
2022/11/20 15:00:58;;;;;;;;;;;;;;;6.13;100.00;100301.88;5258752;28;20025;-69
2022/11/20 15:03:38;;;;;;;33.95;24.73;;;;;;;6.04;100.00;100291.44;5257901;28;19916;-69
2022/11/20 15:06:11;;;;;;;36.42;25.08;;;;;;;6.05;100.00;100293.06;5260355;28;20053;-68
2022/11/20 15:08:53;;;;;;;36.22;23.73;;;;;;;6.12;100.00;100292.00;5249179;28;20449;-70
2022/11/20 15:11:35;;;;;;;36.75;25.48;;;;;;;6.08;100.00;100286.19;5243520;28;20575;-70
2022/11/20 15:14:09;;;;;;;41.00;26.98;;;;;;;6.07;100.00;100279.88;5238369;28;20351;-70
2022/11/20 15:16:41;;;;;;;36.20;25.73;;;;;;;5.99;100.00;100271.31;5236619;28;20094;-69
2022/11/20 15:19:21;;;;;;;35.58;25.67;;;;;;;6.04;100.00;100274.91;5240509;28;20030;-70
2022/11/20 15:21:52;;;;;;;39.33;26.55;;;;;;;6.10;100.00;100264.72;5255557;28;20036;-72
2022/11/20 15:24:24;;;;;;;39.15;24.52;;;;;;;6.09;100.00;100254.81;5254837;28;20472;-72
2022/11/20 15:26:55;;;;;;;37.25;25.92;;;;;;;6.07;100.00;100249.56;5261387;28;20025;-71
2022/11/20 15:29:26;;;;;;;38.63;27.05;;;;;;;6.09;100.00;100243.81;5262997;28;20046;-72
2022/11/20 15:31:57;;;;;;;39.92;26.08;;;;;;;6.15;100.00;100245.44;5256641;28;20078;-70
2022/11/20 15:34:29;;;;;;;37.42;26.75;;;;;;;6.15;100.00;100241.88;5255798;28;20051;-70
2022/11/20 15:37:00;;;;;;;38.53;25.48;;;;;;;6.14;100.00;100223.72;5254826;28;20506;-71
2022/11/20 15:39:31;;;;;;;37.42;26.30;;;;;;;6.14;100.00;100226.47;5243146;28;20082;-70
2022/11/20 15:42:03;;;;;;;38.80;26.75;;;;;;;6.14;100.00;100212.72;5251937;28;20036;-69
2022/11/20 15:44:34;;;;;;;35.03;25.25;;;;;;;6.13;100.00;100216.53;5263331;28;20091;-69
2022/11/20 15:47:05;;;;;;;36.30;23.80;;;;;;;6.14;100.00;100212.72;5265321;28;20060;-69
2022/11/20 15:49:36;;;;;;;35.60;26.23;;;;;;;6.05;100.00;100204.97;5253294;28;20331;-70
2022/11/20 15:52:09;;;;;;;34.80;25.92;;;;;;;6.10;100.00;100195.91;5243743;28;20125;-70
2022/11/20 15:54:43;;;;;;;35.13;23.90;;;;;;;6.19;100.00;100193.44;5248648;28;20028;-70
2022/11/20 15:57:14;;;;;;;40.20;25.20;;;;;;;6.17;100.00;100198.38;5264315;28;20085;-71
2022/11/20 15:59:46;;;;;;;33.13;24.63;;;;;;;6.20;100.00;100186.81;5256304;28;20021;-70
2022/11/20 16:02:17;;;;;;;37.33;23.77;;;;;;;6.16;100.00;100178.28;5265476;28;20033;-69
2022/11/20 16:04:48;;;;;;;31.23;22.33;;;;;;;6.18;100.00;100170.56;5265089;28;20052;-69
2022/11/20 16:07:19;;;;;;;34.30;24.27;;;;;;;6.23;100.00;100178.00;5264512;28;20456;-69
2022/11/20 16:09:51;;;;;;;32.80;23.92;;;;;;;6.20;100.00;100173.03;5265211;28;20017;-69
2022/11/20 16:18:02;;;;;;;30.17;20.73;;;;;;;6.18;100.00;100158.72;5244001;28;20034;-69
2022/11/20 16:20:36;;;;;;;33.35;22.27;;;;;;;6.24;100.00;100157.63;5243592;28;20021;-69
2022/11/20 16:23:11;;;;;;;32.05;20.42;;;;;;;6.21;100.00;100153.50;5243759;28;20376;-69
2022/11/20 16:25:43;;;;;;;27.50;17.85;;;;;;;6.30;100.00;100159.25;5244035;28;20025;-69
2022/11/20 16:28:15;;;;;;;24.35;18.08;;;;;;;6.27;100.00;100155.13;5243933;28;20072;-71
2022/11/20 16:30:46;;;;;;;22.02;15.10;;;;;;;6.35;100.00;100142.72;5244151;28;20049;-71
2022/11/20 16:33:18;;;;;;;21.95;17.35;;;;;;;6.37;100.00;100145.22;5250501;28;20385;-70
2022/11/20 16:35:49;;;;;;;22.45;16.48;;;;;;;6.40;100.00;100144.66;5243916;28;20030;-71
